Time;durP1;ratioP1;P1;durP2;ratioP2;P2;SDS_P1;SDS_P2;PMS_P1;PMS_P2;Temp;Humidity;BMP_temperature;BMP_pressure;BME280_temperature;BME280_humidity;BME280_pressure;Samples;Min_cycle;Max_cycle;Signal;HPM_P1;HPM_P2
2023/05/12 00:00:03;;;;;;;24.40;11.45;;;11.30;99.90;;;;;;5037217;28;20045;-72
2023/05/12 00:02:30;;;;;;;23.55;11.60;;;11.30;99.90;;;;;;5071406;28;20053;-71
2023/05/12 00:04:55;;;;;;;24.10;11.23;;;11.40;99.90;;;;;;5041022;28;20044;-72
2023/05/12 00:07:21;;;;;;;25.00;10.88;;;11.40;99.90;;;;;;5035352;28;20025;-68
2023/05/12 00:09:47;;;;;;;22.98;10.48;;;11.40;99.90;;;;;;5036516;28;20527;-71
2023/05/12 00:12:12;;;;;;;25.20;11.18;;;11.40;99.90;;;;;;5039740;28;20064;-69
2023/05/12 00:14:38;;;;;;;24.77;10.52;;;11.30;99.90;;;;;;5037627;28;20040;-69
2023/05/12 00:17:05;;;;;;;23.42;11.02;;;11.30;99.90;;;;;;5035867;28;20040;-68
2023/05/12 00:19:35;;;;;;;25.08;10.93;;;11.30;99.90;;;;;;5035602;28;20106;-66
2023/05/12 00:22:01;;;;;;;22.58;10.10;;;11.30;99.90;;;;;;5040565;28;20123;-66
2023/05/12 00:24:26;;;;;;;18.50;9.25;;;11.20;99.90;;;;;;5039555;28;20632;-67
2023/05/12 00:26:53;;;;;;;19.25;9.40;;;11.30;99.90;;;;;;5077342;28;20033;-68
2023/05/12 00:29:18;;;;;;;19.15;9.45;;;11.20;99.90;;;;;;5068198;28;20045;-69
2023/05/12 00:31:44;;;;;;;20.70;9.98;;;11.20;99.90;;;;;;5075459;28;20087;-68
2023/05/12 00:34:10;;;;;;;19.40;9.73;;;11.20;99.90;;;;;;5069249;28;20037;-69
2023/05/12 00:36:35;;;;;;;18.27;9.85;;;11.20;99.90;;;;;;5037688;28;20224;-72
2023/05/12 00:39:02;;;;;;;22.05;10.32;;;11.30;99.90;;;;;;5038495;28;20107;-72
2023/05/12 00:41:28;;;;;;;19.88;9.95;;;11.20;99.90;;;;;;5034663;28;20049;-71
2023/05/12 00:43:53;;;;;;;24.42;11.05;;;11.20;99.90;;;;;;5072291;28;20541;-71
2023/05/12 00:46:20;;;;;;;24.13;11.00;;;11.20;99.90;;;;;;5036117;28;20044;-72
2023/05/12 00:48:46;;;;;;;26.33;11.55;;;11.30;99.90;;;;;;5041189;28;20045;-71
2023/05/12 00:51:14;;;;;;;24.60;11.20;;;11.30;99.90;;;;;;5037149;28;20119;-74
2023/05/12 00:53:40;;;;;;;21.05;10.90;;;11.20;99.90;;;;;;5072142;28;20072;-69
2023/05/12 00:56:07;;;;;;;21.70;9.80;;;11.30;99.90;;;;;;5044137;28;20068;-72
2023/05/12 00:58:32;;;;;;;20.77;9.45;;;11.30;99.90;;;;;;5038509;28;20057;-72
2023/05/12 01:00:58;;;;;;;20.63;10.20;;;11.20;99.90;;;;;;5048916;28;20049;-71
2023/05/12 01:03:23;;;;;;;22.33;10.00;;;11.30;99.90;;;;;;5039436;28;20037;-73
2023/05/12 01:06:00;;;;;;;20.50;9.82;;;11.30;99.90;;;;;;5043389;28;20041;-72
2023/05/12 01:08:26;;;;;;;22.23;10.80;;;11.20;99.90;;;;;;5042742;28;20045;-75
2023/05/12 01:10:51;;;;;;;21.27;10.32;;;11.40;99.90;;;;;;5047953;28;20159;-71
2023/05/12 01:13:17;;;;;;;20.23;9.55;;;11.30;99.90;;;;;;5043344;28;20746;-72
2023/05/12 01:15:46;;;;;;;27.05;12.43;;;11.30;99.90;;;;;;5040654;28;20057;-72
2023/05/12 01:18:14;;;;;;;25.70;12.10;;;11.20;99.90;;;;;;5035971;28;20052;-73
2023/05/12 01:20:41;;;;;;;26.20;11.27;;;11.30;99.90;;;;;;5018607;28;20056;-72
2023/05/12 01:23:08;;;;;;;32.55;12.57;;;11.40;99.90;;;;;;5041432;28;20709;-72
2023/05/12 01:25:36;;;;;;;33.30;12.93;;;11.40;99.90;;;;;;5039329;28;20064;-72
2023/05/12 01:28:02;;;;;;;34.80;14.20;;;11.40;99.90;;;;;;5045316;28;20045;-72
2023/05/12 01:30:29;;;;;;;37.00;14.05;;;11.40;99.90;;;;;;5040170;28;20138;-70
2023/05/12 01:32:55;;;;;;;34.28;13.68;;;11.40;99.90;;;;;;5037080;28;20074;-70
2023/05/12 01:35:20;;;;;;;37.50;15.88;;;11.50;99.90;;;;;;5043037;28;20136;-72
2023/05/12 01:37:46;;;;;;;38.92;15.70;;;11.40;99.90;;;;;;5036473;28;20561;-71
2023/05/12 01:40:12;;;;;;;39.55;16.08;;;11.40;99.90;;;;;;5039959;28;20037;-74
2023/05/12 01:42:41;;;;;;;40.45;16.27;;;11.50;99.90;;;;;;5037950;28;20045;-71
2023/05/12 01:45:08;;;;;;;44.25;15.98;;;11.40;99.90;;;;;;5043348;28;20047;-72
2023/05/12 01:47:33;;;;;;;47.08;18.20;;;11.40;99.90;;;;;;5037870;28;20037;-73
2023/05/12 01:49:59;;;;;;;43.13;17.35;;;11.40;99.90;;;;;;5039649;28;20062;-71
2023/05/12 01:52:24;;;;;;;45.92;17.33;;;11.50;99.90;;;;;;5038098;28;20088;-72
2023/05/12 01:54:50;;;;;;;51.20;19.42;;;11.50;99.90;;;;;;5036447;28;20049;-69
2023/05/12 01:57:16;;;;;;;64.53;20.92;;;11.50;99.90;;;;;;5035044;28;20048;-73
2023/05/12 01:59:42;;;;;;;55.67;20.42;;;11.40;99.90;;;;;;5031981;28;20036;-74
2023/05/12 02:02:07;;;;;;;53.63;20.02;;;11.50;99.90;;;;;;5041693;28;20041;-72
2023/05/12 02:04:33;;;;;;;56.35;21.17;;;11.40;99.90;;;;;;5040252;28;20455;-71
2023/05/12 02:06:59;;;;;;;67.35;22.20;;;11.50;99.90;;;;;;5041461;28;20029;-70
2023/05/12 02:09:25;;;;;;;57.67;22.95;;;11.50;99.90;;;;;;5035653;28;20049;-72
2023/05/12 02:11:50;;;;;;;66.40;23.52;;;11.60;99.90;;;;;;5041905;28;20442;-71
2023/05/12 02:14:16;;;;;;;74.45;25.90;;;11.60;99.90;;;;;;5040355;28;20052;-71
2023/05/12 02:16:42;;;;;;;86.47;27.67;;;11.60;99.90;;;;;;5033779;28;20144;-72
2023/05/12 02:19:08;;;;;;;79.47;26.42;;;11.60;99.90;;;;;;5035245;28;20090;-70
2023/05/12 02:21:33;;;;;;;82.20;26.85;;;11.50;99.90;;;;;;5031365;28;20561;-70
2023/05/12 02:23:59;;;;;;;71.90;26.75;;;11.60;99.90;;;;;;5058296;28;20426;-71
2023/05/12 02:26:24;;;;;;;78.68;25.65;;;11.70;99.90;;;;;;5036800;28;20044;-73
2023/05/12 02:28:50;;;;;;;91.97;29.13;;;11.60;99.90;;;;;;5037345;28;20071;-72
2023/05/12 02:31:16;;;;;;;76.25;27.10;;;11.60;99.90;;;;;;5039775;28;20468;-70
2023/05/12 02:33:42;;;;;;;82.55;28.63;;;11.70;99.90;;;;;;5039723;28;20040;-69
2023/05/12 02:36:07;;;;;;;81.88;28.13;;;11.70;99.90;;;;;;5040231;28;20041;-72
2023/05/12 02:38:33;;;;;;;92.22;29.58;;;11.70;99.90;;;;;;5044952;28;20051;-70
2023/05/12 02:40:59;;;;;;;90.35;28.65;;;11.70;99.90;;;;;;5049540;28;20072;-71
2023/05/12 02:43:24;;;;;;;87.35;29.48;;;11.70;99.90;;;;;;5044646;28;20049;-71
2023/05/12 02:45:50;;;;;;;92.03;30.67;;;11.70;99.90;;;;;;5045967;28;20427;-69
2023/05/12 02:48:16;;;;;;;94.85;29.42;;;11.70;99.90;;;;;;5045728;28;20040;-70
2023/05/12 02:50:42;;;;;;;92.43;29.70;;;11.80;99.90;;;;;;5044573;28;20045;-70
2023/05/12 02:53:07;;;;;;;95.13;30.75;;;11.80;99.90;;;;;;5031554;28;20041;-70
2023/05/12 02:55:33;;;;;;;88.70;30.80;;;11.60;99.90;;;;;;5039654;28;20149;-69
2023/05/12 02:57:59;;;;;;;91.25;29.63;;;11.80;99.90;;;;;;5039004;28;20071;-70
2023/05/12 03:00:24;;;;;;;89.80;30.25;;;11.80;99.90;;;;;;5039875;28;20091;-70
2023/05/12 03:02:50;;;;;;;85.93;30.33;;;11.70;99.90;;;;;;5033507;28;20498;-70
2023/05/12 03:05:16;;;;;;;92.93;30.83;;;11.80;99.90;;;;;;5044062;28;20464;-70
2023/05/12 03:07:41;;;;;;;89.35;30.58;;;11.70;99.90;;;;;;5042374;28;20550;-69
2023/05/12 03:10:08;;;;;;;89.35;30.83;;;11.80;99.90;;;;;;5041664;28;20373;-69
2023/05/12 03:12:34;;;;;;;90.03;31.58;;;11.80;99.90;;;;;;5044308;28;20052;-69
2023/05/12 03:14:59;;;;;;;91.47;30.30;;;11.70;99.90;;;;;;5042670;28;20044;-68
2023/05/12 03:17:25;;;;;;;92.68;30.58;;;11.80;99.90;;;;;;5020315;28;20060;-69
2023/05/12 03:19:51;;;;;;;105.20;32.30;;;11.90;99.90;;;;;;5037321;28;20045;-70
2023/05/12 03:22:16;;;;;;;98.60;31.42;;;11.80;99.90;;;;;;5034906;28;20041;-69
2023/05/12 03:24:42;;;;;;;83.70;30.10;;;11.90;99.90;;;;;;5036353;28;20116;-69
2023/05/12 03:27:08;;;;;;;88.07;30.92;;;11.90;99.90;;;;;;5031964;28;20044;-70
2023/05/12 03:29:33;;;;;;;82.80;29.15;;;11.80;99.90;;;;;;5028233;28;20052;-71
2023/05/12 03:31:59;;;;;;;86.47;30.45;;;12.00;99.90;;;;;;5032831;28;20033;-69
2023/05/12 03:34:24;;;;;;;88.70;31.38;;;12.00;99.90;;;;;;5043034;28;20052;-69
2023/05/12 03:36:50;;;;;;;86.90;29.77;;;11.80;99.90;;;;;;5032403;28;20047;-69
2023/05/12 03:39:15;;;;;;;89.32;30.15;;;11.90;99.90;;;;;;5032850;28;20148;-70
2023/05/12 03:41:41;;;;;;;84.20;31.23;;;11.90;99.90;;;;;;5042035;28;20048;-69
2023/05/12 03:44:11;;;;;;;84.60;31.00;;;12.00;99.90;;;;;;5032186;28;20037;-71
2023/05/12 03:46:36;;;;;;;92.63;31.77;;;12.00;99.90;;;;;;5036024;28;20041;-70
2023/05/12 03:49:02;;;;;;;89.57;32.58;;;12.00;99.90;;;;;;5037435;28;20048;-67
2023/05/12 03:51:27;;;;;;;94.38;32.63;;;11.90;99.90;;;;;;5040281;28;20259;-69
2023/05/12 03:53:53;;;;;;;91.20;32.47;;;11.90;99.90;;;;;;5034086;28;20057;-70
2023/05/12 03:56:18;;;;;;;91.60;30.45;;;12.00;99.90;;;;;;5036015;28;20557;-68
2023/05/12 03:58:47;;;;;;;99.00;32.35;;;12.00;99.90;;;;;;5020751;28;20033;-70
2023/05/12 04:01:12;;;;;;;98.75;33.38;;;11.90;99.90;;;;;;5039729;28;20496;-70
2023/05/12 04:03:40;;;;;;;103.32;33.10;;;12.10;99.90;;;;;;5033249;28;20183;-69
2023/05/12 04:06:05;;;;;;;91.50;31.65;;;12.10;99.90;;;;;;5041892;28;20115;-68
2023/05/12 04:08:31;;;;;;;98.13;32.95;;;12.10;99.90;;;;;;5033792;28;20038;-70
2023/05/12 04:10:58;;;;;;;94.72;31.40;;;12.00;99.90;;;;;;5045153;28;20048;-70
2023/05/12 04:13:24;;;;;;;91.18;31.05;;;12.10;99.90;;;;;;5042478;28;20051;-67
2023/05/12 04:15:50;;;;;;;99.07;32.42;;;12.20;99.90;;;;;;5038665;28;20508;-71
2023/05/12 04:18:16;;;;;;;100.93;33.03;;;12.00;99.90;;;;;;5041361;28;20135;-69
2023/05/12 04:20:43;;;;;;;93.72;32.28;;;12.20;99.90;;;;;;5045626;28;20049;-69
2023/05/12 04:23:08;;;;;;;98.75;32.35;;;12.10;99.90;;;;;;5045480;28;20080;-71
2023/05/12 04:25:41;;;;;;;88.03;32.15;;;12.20;99.90;;;;;;5043962;28;20084;-68
2023/05/12 04:28:08;;;;;;;90.68;32.67;;;12.00;99.90;;;;;;5040816;28;20033;-69
2023/05/12 04:30:33;;;;;;;98.93;32.92;;;12.10;99.90;;;;;;5047669;28;20103;-68
2023/05/12 04:32:59;;;;;;;92.75;31.85;;;12.20;99.90;;;;;;5047328;28;20086;-71
2023/05/12 04:35:25;;;;;;;96.82;32.03;;;12.20;99.90;;;;;;5051425;28;20045;-68
2023/05/12 04:37:51;;;;;;;91.20;30.95;;;12.10;99.90;;;;;;5047197;28;20068;-70
2023/05/12 04:40:17;;;;;;;87.38;32.35;;;12.20;99.90;;;;;;5046878;28;20078;-71
2023/05/12 04:42:43;;;;;;;87.55;31.25;;;12.30;99.90;;;;;;5046814;28;20191;-70
2023/05/12 04:45:09;;;;;;;82.28;30.45;;;12.30;99.90;;;;;;5047161;28;20527;-71
2023/05/12 04:47:34;;;;;;;87.40;32.13;;;12.30;99.90;;;;;;5045964;28;20136;-70
2023/05/12 04:50:00;;;;;;;84.82;31.95;;;12.30;99.90;;;;;;5045976;28;20163;-70
2023/05/12 04:52:25;;;;;;;80.90;31.02;;;12.30;99.90;;;;;;5046686;28;20143;-70
2023/05/12 04:54:52;;;;;;;86.82;31.42;;;12.40;99.90;;;;;;5046028;28;20045;-71
2023/05/12 04:57:17;;;;;;;89.45;33.00;;;12.40;99.90;;;;;;5047043;28;20045;-69
2023/05/12 04:59:43;;;;;;;82.07;32.17;;;12.50;99.90;;;;;;5038891;28;20586;-71
2023/05/12 05:02:10;;;;;;;77.20;31.05;;;12.50;99.90;;;;;;5041529;28;20057;-71
2023/05/12 05:04:36;;;;;;;82.53;32.55;;;12.50;99.90;;;;;;5076120;28;20029;-71
2023/05/12 05:07:01;;;;;;;81.82;32.55;;;12.60;99.90;;;;;;5041855;28;20045;-69
2023/05/12 05:09:27;;;;;;;81.38;32.15;;;12.70;99.90;;;;;;5076414;28;20422;-73
2023/05/12 05:11:52;;;;;;;72.72;31.42;;;12.50;99.90;;;;;;5044309;28;20045;-72
2023/05/12 05:14:18;;;;;;;74.82;30.73;;;12.60;99.90;;;;;;5042489;28;20045;-73
2023/05/12 05:16:45;;;;;;;85.65;32.45;;;12.50;99.90;;;;;;5045730;28;20041;-71
2023/05/12 05:19:12;;;;;;;73.13;31.67;;;12.60;99.90;;;;;;5041695;28;20067;-73
2023/05/12 05:21:37;;;;;;;71.75;31.05;;;12.70;99.90;;;;;;5072550;28;20047;-73
2023/05/12 05:24:03;;;;;;;70.90;30.70;;;12.80;99.90;;;;;;5033830;28;20030;-74
2023/05/12 05:26:29;;;;;;;71.68;31.08;;;12.70;99.90;;;;;;5038378;28;20037;-71
2023/05/12 05:28:54;;;;;;;73.47;30.55;;;12.90;99.90;;;;;;5032136;28;20075;-71
2023/05/12 05:31:20;;;;;;;74.55;31.73;;;12.80;99.90;;;;;;5077250;28;20033;-75
2023/05/12 05:33:46;;;;;;;68.32;30.35;;;13.00;99.90;;;;;;5034882;28;20099;-72
2023/05/12 05:36:12;;;;;;;67.47;30.27;;;13.00;99.90;;;;;;5045907;28;20069;-70
2023/05/12 05:38:37;;;;;;;68.43;31.02;;;13.00;99.90;;;;;;5044879;28;20060;-72
2023/05/12 05:41:03;;;;;;;64.75;29.83;;;13.00;99.90;;;;;;5043694;28;20045;-72
2023/05/12 05:43:29;;;;;;;64.45;29.35;;;12.90;99.90;;;;;;5043035;28;20040;-72
2023/05/12 05:45:56;;;;;;;69.10;30.98;;;13.10;99.90;;;;;;5034967;28;20412;-73
2023/05/12 05:48:25;;;;;;;62.72;29.52;;;13.00;99.90;;;;;;5039386;28;20069;-73
2023/05/12 05:50:52;;;;;;;68.20;31.50;;;13.10;99.90;;;;;;5038735;28;20433;-72
2023/05/12 05:53:19;;;;;;;66.90;30.10;;;13.00;99.90;;;;;;5040079;28;20059;-73
2023/05/12 05:55:47;;;;;;;62.17;29.83;;;13.00;99.90;;;;;;5047337;28;20103;-72
2023/05/12 05:58:14;;;;;;;58.20;27.50;;;13.20;99.90;;;;;;5042052;28;20074;-72
2023/05/12 06:00:41;;;;;;;65.40;30.38;;;13.10;99.90;;;;;;5039662;28;20040;-73
2023/05/12 06:03:07;;;;;;;65.90;30.38;;;13.20;99.90;;;;;;5040239;28;20037;-73
2023/05/12 06:05:32;;;;;;;65.22;28.13;;;13.20;99.90;;;;;;5039005;28;20103;-72
2023/05/12 06:07:58;;;;;;;65.50;29.52;;;13.20;99.90;;;;;;5033566;28;20040;-73
2023/05/12 06:10:23;;;;;;;58.55;28.25;;;13.10;99.90;;;;;;5030727;28;20045;-74
2023/05/12 06:12:49;;;;;;;59.42;27.45;;;13.30;99.90;;;;;;5052596;28;20459;-73
2023/05/12 06:15:15;;;;;;;60.75;27.35;;;13.10;99.90;;;;;;5036137;28;20432;-73
2023/05/12 06:17:41;;;;;;;59.78;28.30;;;13.30;99.90;;;;;;5031961;28;20732;-71
2023/05/12 06:20:07;;;;;;;55.80;28.00;;;13.30;99.90;;;;;;5035230;28;20029;-70
2023/05/12 06:22:33;;;;;;;57.45;27.73;;;13.20;99.90;;;;;;5034500;28;20037;-71
2023/05/12 06:24:59;;;;;;;59.40;28.02;;;13.20;99.90;;;;;;5038943;28;20041;-70
2023/05/12 06:27:25;;;;;;;61.85;28.35;;;13.40;99.90;;;;;;5037922;28;20120;-70
2023/05/12 06:29:51;;;;;;;58.85;28.58;;;13.30;99.90;;;;;;5033025;28;20048;-71
2023/05/12 06:32:17;;;;;;;60.10;27.92;;;13.30;99.90;;;;;;5063793;28;20063;-70
2023/05/12 06:34:43;;;;;;;57.38;27.80;;;13.40;99.90;;;;;;5076628;28;20226;-72
2023/05/12 06:37:08;;;;;;;58.63;27.30;;;13.40;99.90;;;;;;5048020;28;20068;-70
2023/05/12 06:39:34;;;;;;;56.83;27.13;;;13.50;99.90;;;;;;5035868;28;20041;-70
2023/05/12 06:42:00;;;;;;;59.25;27.42;;;13.50;99.90;;;;;;5037269;28;20045;-71
2023/05/12 06:44:25;;;;;;;58.47;27.25;;;13.50;99.90;;;;;;5034678;28;20075;-70
2023/05/12 06:46:51;;;;;;;58.65;26.98;;;13.50;99.90;;;;;;5040493;28;20041;-70
2023/05/12 06:49:17;;;;;;;57.90;26.73;;;13.50;99.90;;;;;;5034743;28;20042;-70
2023/05/12 06:51:42;;;;;;;55.90;26.52;;;13.60;99.90;;;;;;5040716;28;20055;-70
2023/05/12 06:54:08;;;;;;;59.97;27.13;;;13.50;99.90;;;;;;5035677;28;20448;-69
2023/05/12 06:56:33;;;;;;;54.45;26.10;;;13.50;99.90;;;;;;5035338;28;20548;-70
2023/05/12 06:59:01;;;;;;;52.47;25.35;;;13.60;99.90;;;;;;5041059;28;20267;-70
2023/05/12 07:01:27;;;;;;;57.55;27.15;;;13.60;99.90;;;;;;5040755;28;20052;-70
2023/05/12 07:03:53;;;;;;;55.42;26.08;;;13.60;99.90;;;;;;5039491;28;20048;-70
2023/05/12 07:06:19;;;;;;;56.28;25.75;;;13.70;99.90;;;;;;5041946;28;20029;-70
2023/05/12 07:08:45;;;;;;;57.55;27.55;;;13.80;99.90;;;;;;5038759;28;20036;-69
2023/05/12 07:11:10;;;;;;;55.30;27.17;;;13.90;99.90;;;;;;5034117;28;20436;-70
2023/05/12 07:13:37;;;;;;;56.17;26.50;;;13.80;99.90;;;;;;5026453;28;20047;-70
2023/05/12 07:16:02;;;;;;;55.97;26.60;;;14.00;99.90;;;;;;5037272;28;20090;-70
2023/05/12 07:18:28;;;;;;;59.10;27.60;;;14.00;99.90;;;;;;5039496;28;20076;-69
2023/05/12 07:20:54;;;;;;;52.60;26.23;;;14.20;99.90;;;;;;5036928;28;20053;-70
2023/05/12 07:23:20;;;;;;;60.72;27.58;;;14.10;99.90;;;;;;5040615;28;20060;-70
2023/05/12 07:25:45;;;;;;;50.10;25.42;;;14.30;99.90;;;;;;5037417;28;20141;-69
2023/05/12 07:28:11;;;;;;;55.03;26.77;;;14.40;99.90;;;;;;5042054;28;20043;-69
2023/05/12 07:30:37;;;;;;;54.72;26.38;;;14.40;99.90;;;;;;5031502;28;20045;-69
2023/05/12 07:33:03;;;;;;;50.17;25.92;;;14.40;99.90;;;;;;5037955;28;20257;-69
2023/05/12 07:35:29;;;;;;;50.95;25.85;;;14.60;99.90;;;;;;5044182;28;20049;-69
2023/05/12 07:37:55;;;;;;;52.95;24.80;;;14.60;99.90;;;;;;5033352;28;20048;-69
2023/05/12 07:40:21;;;;;;;52.25;26.30;;;14.70;99.90;;;;;;5071558;28;20058;-69
2023/05/12 07:42:47;;;;;;;51.72;25.13;;;14.80;99.90;;;;;;5036944;28;20045;-68
2023/05/12 07:45:12;;;;;;;48.50;26.05;;;14.80;99.90;;;;;;5037814;28;20233;-68
2023/05/12 07:47:38;;;;;;;51.03;25.10;;;14.80;99.90;;;;;;5035079;28;20037;-69
2023/05/12 07:50:05;;;;;;;45.33;24.40;;;14.90;99.90;;;;;;5036961;28;20053;-67
2023/05/12 07:52:31;;;;;;;46.70;25.48;;;15.00;99.90;;;;;;5040876;28;20408;-68
2023/05/12 07:54:57;;;;;;;47.92;25.67;;;15.10;99.90;;;;;;5041166;28;20052;-67
2023/05/12 07:57:23;;;;;;;47.33;24.77;;;15.20;99.90;;;;;;5035748;28;20399;-68
2023/05/12 07:59:48;;;;;;;45.35;23.73;;;15.20;99.90;;;;;;5035572;28;20480;-67
2023/05/12 08:02:16;;;;;;;42.45;24.13;;;15.30;99.90;;;;;;5035481;28;20098;-67
2023/05/12 08:04:42;;;;;;;47.60;25.63;;;15.40;99.90;;;;;;5073513;28;20041;-68
2023/05/12 08:07:07;;;;;;;46.00;25.38;;;15.40;99.90;;;;;;5041954;28;20033;-67
2023/05/12 08:09:33;;;;;;;40.28;23.33;;;15.50;99.90;;;;;;5045550;28;20029;-67
2023/05/12 08:11:58;;;;;;;45.38;24.88;;;15.60;99.90;;;;;;5032437;28;20083;-67
2023/05/12 08:14:24;;;;;;;40.70;23.75;;;15.70;99.90;;;;;;5046246;28;20411;-67
2023/05/12 08:16:50;;;;;;;42.35;23.83;;;15.70;99.90;;;;;;5048416;28;20398;-67
2023/05/12 08:19:16;;;;;;;43.05;24.42;;;15.80;99.90;;;;;;5035692;28;20041;-67
2023/05/12 08:21:41;;;;;;;43.95;24.30;;;15.90;99.90;;;;;;5037122;28;20074;-66
2023/05/12 08:24:07;;;;;;;39.60;23.27;;;16.00;99.90;;;;;;5033676;28;20123;-67
2023/05/12 08:26:33;;;;;;;39.88;23.30;;;16.00;99.90;;;;;;5036936;28;20033;-66
2023/05/12 08:28:58;;;;;;;43.35;23.45;;;16.00;99.90;;;;;;5045590;28;20048;-67
2023/05/12 08:31:24;;;;;;;37.08;22.77;;;16.00;99.90;;;;;;5040532;28;20048;-66
2023/05/12 08:33:49;;;;;;;39.10;23.25;;;15.90;99.90;;;;;;5038586;28;20041;-66
2023/05/12 08:36:15;;;;;;;39.47;24.15;;;15.90;99.90;;;;;;5047772;28;20033;-66
2023/05/12 08:38:41;;;;;;;40.03;23.58;;;15.90;99.90;;;;;;5048879;28;20384;-66
2023/05/12 08:41:35;;;;;;;40.88;24.42;;;16.00;99.90;;;;;;5048451;28;20053;-66
2023/05/12 08:44:02;;;;;;;42.20;23.25;;;15.90;99.90;;;;;;5042307;28;20099;-66
2023/05/12 08:46:30;;;;;;;37.95;22.98;;;16.00;99.90;;;;;;5040814;28;20045;-65
2023/05/12 08:48:59;;;;;;;38.95;23.33;;;16.10;99.90;;;;;;5036967;28;20086;-66
2023/05/12 08:51:27;;;;;;;41.00;24.55;;;16.20;99.90;;;;;;5041743;28;20113;-66
2023/05/12 08:53:55;;;;;;;42.13;24.20;;;16.30;99.90;;;;;;5039068;28;20033;-65
2023/05/12 08:56:21;;;;;;;41.88;24.52;;;16.40;99.90;;;;;;5039106;28;20045;-66
2023/05/12 08:58:47;;;;;;;37.50;23.15;;;16.50;99.90;;;;;;5037795;28;20133;-65
2023/05/12 09:01:14;;;;;;;39.25;23.45;;;16.70;99.90;;;;;;5042135;28;20040;-65
2023/05/12 09:03:40;;;;;;;40.20;23.50;;;16.70;99.90;;;;;;5042258;28;20132;-64
2023/05/12 09:06:07;;;;;;;38.42;23.33;;;16.80;99.90;;;;;;5036790;28;20128;-65
2023/05/12 09:08:33;;;;;;;38.17;24.08;;;17.00;99.90;;;;;;5037129;28;20052;-65
2023/05/12 09:11:00;;;;;;;36.42;23.48;;;17.00;99.90;;;;;;5055630;28;20037;-65
2023/05/12 09:13:29;;;;;;;39.75;23.13;;;17.00;99.90;;;;;;5037234;28;20080;-64
2023/05/12 09:15:55;;;;;;;36.38;23.15;;;17.10;99.90;;;;;;5022026;28;20041;-65
2023/05/12 09:18:21;;;;;;;36.08;22.38;;;17.00;99.90;;;;;;5036555;28;20063;-65
2023/05/12 09:20:47;;;;;;;36.70;22.80;;;17.10;99.90;;;;;;5040419;28;20552;-66
2023/05/12 09:23:14;;;;;;;36.75;23.35;;;17.30;99.90;;;;;;5036985;28;20399;-65
2023/05/12 09:25:39;;;;;;;32.25;21.33;;;17.40;99.90;;;;;;5039044;28;20377;-67
2023/05/12 09:28:05;;;;;;;34.50;22.05;;;17.50;99.90;;;;;;5038060;28;20059;-65
2023/05/12 09:30:34;;;;;;;35.70;22.48;;;17.60;99.90;;;;;;5047182;28;20041;-65
2023/05/12 09:33:11;;;;;;;33.60;21.52;;;17.70;99.90;;;;;;5040080;28;20557;-65
2023/05/12 09:35:44;;;;;;;36.08;22.52;;;17.70;99.90;;;;;;5038744;28;20037;-65
2023/05/12 09:38:12;;;;;;;33.35;21.65;;;17.80;99.90;;;;;;5043447;28;20141;-65
2023/05/12 09:40:37;;;;;;;32.47;20.88;;;17.90;99.90;;;;;;5041204;28;20036;-64
2023/05/12 09:43:05;;;;;;;32.47;21.27;;;18.00;99.90;;;;;;5044269;28;20384;-65
2023/05/12 09:45:37;;;;;;;32.20;21.92;;;18.10;99.90;;;;;;5035529;28;20536;-65
2023/05/12 09:48:10;;;;;;;32.78;22.02;;;18.20;99.90;;;;;;5032043;28;20036;-65
2023/05/12 09:50:44;;;;;;;30.20;21.00;;;18.10;99.90;;;;;;5037384;28;20045;-64
2023/05/12 09:53:10;;;;;;;29.52;20.67;;;18.20;99.90;;;;;;5036473;28;20045;-63
2023/05/12 09:55:36;;;;;;;31.35;19.75;;;18.20;99.90;;;;;;5056815;28;20159;-64
2023/05/12 09:58:08;;;;;;;32.10;20.60;;;18.30;99.90;;;;;;5039253;28;20760;-62
2023/05/12 10:00:37;;;;;;;27.00;19.35;;;18.40;99.90;;;;;;5041256;28;20415;-63
2023/05/12 10:03:39;;;;;;;29.85;20.23;;;18.40;99.90;;;;;;5047059;28;20032;-64
2023/05/12 10:06:06;;;;;;;27.15;19.08;;;18.50;99.90;;;;;;5045158;28;20135;-65
2023/05/12 10:08:46;;;;;;;23.33;17.05;;;18.80;99.90;;;;;;5040701;28;20463;-66
2023/05/12 10:11:13;;;;;;;22.10;16.02;;;19.10;99.90;;;;;;5036787;28;20063;-66
2023/05/12 10:13:39;;;;;;;20.65;15.68;;;19.20;99.90;;;;;;5072677;28;20041;-65
2023/05/12 10:16:06;;;;;;;21.17;15.95;;;19.30;99.90;;;;;;5049008;28;20056;-65
2023/05/12 10:18:45;;;;;;;22.55;16.27;;;19.40;99.90;;;;;;5042608;28;20041;-65
2023/05/12 10:21:12;;;;;;;18.05;14.07;;;19.30;99.90;;;;;;5041252;28;20033;-65
2023/05/12 10:23:40;;;;;;;18.92;14.00;;;19.30;99.90;;;;;;5043947;28;20064;-65
2023/05/12 10:26:06;;;;;;;19.70;13.18;;;19.30;99.90;;;;;;5035023;28;20049;-65
2023/05/12 10:28:31;;;;;;;20.75;15.05;;;19.20;99.90;;;;;;5045299;28;20487;-65
2023/05/12 10:30:57;;;;;;;17.92;13.88;;;19.30;99.90;;;;;;5038333;28;20115;-65
2023/05/12 10:33:40;;;;;;;15.38;12.85;;;19.30;99.90;;;;;;5075247;28;20469;-64
2023/05/12 10:36:19;;;;;;;17.52;13.93;;;19.30;99.90;;;;;;5047037;28;20044;-65
2023/05/12 10:38:50;;;;;;;14.98;11.77;;;19.40;99.90;;;;;;5041869;28;20110;-65
2023/05/12 10:41:16;;;;;;;14.00;10.35;;;19.30;99.90;;;;;;5045913;28;20631;-64
2023/05/12 10:43:49;;;;;;;12.48;9.98;;;19.40;99.90;;;;;;5043137;28;20037;-65
2023/05/12 10:46:17;;;;;;;14.55;11.75;;;19.40;99.90;;;;;;5047752;28;20076;-65
2023/05/12 10:49:03;;;;;;;13.60;11.13;;;19.50;99.90;;;;;;5042530;28;20041;-65
2023/05/12 10:51:46;;;;;;;7.15;5.53;;;19.60;99.90;;;;;;5048532;28;20067;-64
2023/05/12 10:54:18;;;;;;;15.13;10.63;;;19.50;99.90;;;;;;5048982;28;20037;-64
2023/05/12 10:56:48;;;;;;;12.15;10.85;;;19.40;99.90;;;;;;5049120;28;20111;-65
2023/05/12 10:59:17;;;;;;;15.13;11.40;;;19.40;99.90;;;;;;5042581;28;20029;-65
2023/05/12 11:01:57;;;;;;;13.48;11.40;;;19.40;99.90;;;;;;5049237;28;20044;-65
2023/05/12 11:04:35;;;;;;;12.40;9.80;;;19.50;99.90;;;;;;5038728;28;20049;-66
2023/05/12 11:07:04;;;;;;;14.25;8.95;;;19.70;99.90;;;;;;5034376;28;20032;-65
2023/05/12 11:09:30;;;;;;;10.65;8.55;;;19.90;99.90;;;;;;5046002;28;20036;-66
2023/05/12 11:11:56;;;;;;;10.68;8.13;;;20.10;99.90;;;;;;5076415;28;20045;-66
2023/05/12 11:14:24;;;;;;;10.60;8.23;;;20.20;99.90;;;;;;5042170;28;20041;-65
2023/05/12 11:17:17;;;;;;;34.33;15.02;;;20.30;99.90;;;;;;5079686;28;20503;-64
2023/05/12 11:20:20;;;;;;;6.82;6.07;;;20.20;99.90;;;;;;5043932;28;21241;-65
2023/05/12 11:22:47;;;;;;;9.13;7.30;;;20.10;99.90;;;;;;5042984;28;20037;-66
2023/05/12 11:25:13;;;;;;;7.90;7.10;;;20.10;99.90;;;;;;5033187;28;20025;-65
2023/05/12 11:27:44;;;;;;;8.15;6.68;;;20.10;99.90;;;;;;5046696;28;20033;-66
2023/05/12 11:30:10;;;;;;;8.15;7.25;;;20.10;99.90;;;;;;5049363;28;20087;-65
2023/05/12 11:32:35;;;;;;;8.05;7.25;;;20.20;99.90;;;;;;5042341;28;20033;-69
2023/05/12 11:38:50;;;;;;;8.38;7.57;;;20.40;99.90;;;;;;5048513;28;20032;-65
2023/05/12 11:42:00;;;;;;;9.13;8.18;;;20.50;99.90;;;;;;5050173;28;20539;-63
2023/05/12 11:44:33;;;;;;;8.02;6.80;;;20.60;99.90;;;;;;5043708;28;20535;-67
2023/05/12 11:47:02;;;;;;;8.77;7.30;;;20.80;99.90;;;;;;5044907;28;20166;-65
2023/05/12 11:49:48;;;;;;;9.52;7.30;;;21.00;99.90;;;;;;5042995;28;20068;-66
2023/05/12 11:53:06;;;;;;;9.23;7.38;;;21.10;99.90;;;;;;5043582;28;20033;-65
2023/05/12 11:56:01;;;;;;;11.25;7.50;;;21.20;99.90;;;;;;5076722;28;20086;-65
2023/05/12 11:58:29;;;;;;;7.88;7.07;;;21.30;99.90;;;;;;5040410;28;20486;-65
2023/05/12 12:00:56;;;;;;;8.82;6.53;;;21.30;99.90;;;;;;5045568;28;20454;-66
2023/05/12 12:03:22;;;;;;;10.15;8.15;;;21.40;99.90;;;;;;5042968;28;20048;-66
2023/05/12 12:06:00;;;;;;;7.75;7.05;;;21.30;99.90;;;;;;5044260;28;20072;-66
2023/05/12 12:08:25;;;;;;;8.40;7.22;;;21.30;99.90;;;;;;5049135;28;20079;-65
2023/05/12 12:10:51;;;;;;;14.38;9.43;;;21.30;99.90;;;;;;5042394;28;20045;-68
2023/05/12 12:13:21;;;;;;;10.68;8.18;;;21.30;99.90;;;;;;5037288;28;20037;-66
2023/05/12 12:15:47;;;;;;;8.65;7.28;;;21.30;99.90;;;;;;5043480;28;20044;-67
2023/05/12 12:18:15;;;;;;;8.07;7.25;;;21.40;99.90;;;;;;5039963;28;20095;-70
2023/05/12 12:20:41;;;;;;;15.30;8.73;;;21.40;99.90;;;;;;5050317;28;20543;-67
2023/05/12 12:23:07;;;;;;;8.73;7.30;;;21.40;99.90;;;;;;5048016;28;20085;-67
2023/05/12 12:25:32;;;;;;;9.73;8.00;;;21.40;99.90;;;;;;5079315;28;20068;-68
2023/05/12 12:27:58;;;;;;;8.70;6.07;;;21.50;99.90;;;;;;5047020;28;20472;-67
2023/05/12 12:30:23;;;;;;;7.70;5.63;;;21.50;99.90;;;;;;5082665;28;20451;-66
2023/05/12 12:32:49;;;;;;;7.22;5.93;;;21.50;99.90;;;;;;5042442;28;20053;-66